Portada
METAR-TAF:

METAR-TAF

Aeroports :

Lleida-Alguaire

Lleida, Espanya

latitud: 41-43-40N, longitud: 000-32-09E, altitud: 350 m

Observació

L'informe es va fer fa 38 minuts, a les 19:00 UTC
Vent 20 kt del Oest amb ràfegues de 33 kt
Temperatura 13°C
Humitat 62%
Pressió 1017 hPa
Visibilitat 10 km o més
sense núvols per sota de 1500 mi sense presència de cumulonimbus.

METAR: LEDA 251900Z AUTO 26020G33KT CAVOK 13/06 Q1017

Hora: 21:38 (19:38 UTC)


TAF: manca

Observacions i pronòstics meteorològics de més de 4000 aeroports (METAR i TAF).

Les estacions disponibles són els punts grocs i vermells al mapa.

Posi el ratolí al punt desitjat per veure el nom de l'estació.

Feu clic per veure les observacions i els pronòstics meteorològics.

Per canviar el mapa: feu clic els botons verds amb una creu de color negre per apropar; al botó verd amb un guió per allunyar la imatge; o en les fletxes verdes per a mapes adjacents.


METAR-TAF: